createdAt,value
2023-11-15T00:00:09.101Z,72.64
2023-11-15T00:02:36.685Z,72.77
2023-11-15T00:05:04.866Z,72.51
2023-11-15T00:07:32.507Z,72.54
2023-11-15T00:09:59.489Z,73.03
2023-11-15T00:12:26.525Z,73.36
2023-11-15T00:14:53.815Z,71.76
2023-11-15T00:17:21.095Z,71.96
2023-11-15T00:19:47.970Z,72.66
2023-11-15T00:22:16.266Z,72.17
2023-11-15T00:24:44.265Z,72.49
2023-11-15T00:27:12.646Z,72.54
2023-11-15T00:29:39.688Z,73.39
2023-11-15T00:32:07.034Z,73.47
2023-11-15T00:34:33.877Z,73.51
2023-11-15T00:37:01.134Z,73.95
2023-11-15T00:39:29.504Z,74.02
2023-11-15T00:41:56.713Z,74.55
2023-11-15T00:44:23.615Z,74.29
2023-11-15T00:46:51.555Z,74.89
2023-11-15T00:49:18.378Z,74.67
2023-11-15T00:51:45.114Z,74.78
2023-11-15T00:54:13.355Z,75.67
2023-11-15T00:56:40.236Z,74.55
2023-11-15T00:59:07.178Z,74.81
2023-11-15T01:01:34.021Z,74.66
2023-11-15T01:04:00.985Z,75.08
2023-11-15T01:06:27.796Z,73.98
2023-11-15T01:08:56.281Z,73.37
2023-11-15T01:11:24.735Z,73.68
2023-11-15T01:13:51.676Z,74.49
2023-11-15T01:16:19.229Z,74.25
2023-11-15T01:18:46.036Z,75.09
2023-11-15T01:21:13.292Z,74.69
2023-11-15T01:23:40.235Z,74.22
2023-11-15T01:26:07.384Z,74.54
2023-11-15T01:28:34.728Z,75.16
2023-11-15T01:31:01.509Z,76.10
2023-11-15T01:33:28.366Z,73.76
2023-11-15T01:35:55.161Z,74.77
2023-11-15T01:38:22.323Z,74.93
2023-11-15T01:40:49.690Z,74.63
2023-11-15T01:43:17.838Z,75.87
2023-11-15T01:45:52.363Z,75.29
2023-11-15T01:48:19.782Z,76.31
2023-11-15T01:50:48.161Z,76.51
2023-11-15T01:53:15.827Z,76.24
2023-11-15T01:55:43.991Z,74.65
2023-11-15T01:58:10.946Z,75.45
2023-11-15T02:00:40.240Z,74.55
2023-11-15T02:03:07.107Z,75.41
2023-11-15T02:05:34.012Z,75.51
2023-11-15T02:08:00.849Z,75.68
2023-11-15T02:10:27.705Z,76.30
2023-11-15T02:12:55.317Z,75.48
2023-11-15T02:15:22.860Z,74.87
2023-11-15T02:17:50.276Z,75.03
2023-11-15T02:20:17.574Z,74.88
2023-11-15T02:22:49.936Z,75.47
2023-11-15T02:25:18.625Z,75.33
2023-11-15T02:27:45.830Z,75.56
2023-11-15T02:30:13.044Z,75.45
2023-11-15T02:32:42.457Z,73.97
2023-11-15T02:35:09.847Z,73.26
2023-11-15T02:37:36.967Z,74.34
2023-11-15T02:40:06.414Z,74.68
2023-11-15T02:42:34.151Z,74.70
2023-11-15T02:45:01.143Z,74.89
2023-11-15T02:47:28.383Z,75.26
2023-11-15T02:49:55.433Z,75.22
2023-11-15T02:52:22.887Z,75.56
2023-11-15T02:54:50.112Z,75.84
2023-11-15T02:57:16.942Z,74.04
2023-11-15T02:59:43.727Z,74.39
2023-11-15T03:02:11.549Z,74.84
2023-11-15T03:04:39.064Z,75.43
2023-11-15T03:07:05.930Z,75.44
2023-11-15T03:09:33.005Z,75.00
2023-11-15T03:12:00.142Z,75.29
2023-11-15T03:14:29.820Z,75.48
2023-11-15T03:16:56.654Z,75.44
2023-11-15T03:19:23.509Z,75.37
2023-11-15T03:21:50.199Z,74.51
2023-11-15T03:24:16.974Z,73.81
2023-11-15T03:26:43.781Z,74.26
2023-11-15T03:29:10.569Z,74.39
2023-11-15T03:31:37.256Z,74.09
2023-11-15T03:34:06.040Z,74.40
2023-11-15T03:36:34.058Z,74.79
2023-11-15T03:39:01.051Z,74.84
2023-11-15T03:41:27.921Z,75.16
2023-11-15T03:43:54.612Z,75.11
2023-11-15T03:46:21.377Z,75.34
2023-11-15T03:48:48.420Z,75.16
2023-11-15T03:51:15.168Z,74.45
2023-11-15T03:53:41.978Z,74.01
2023-11-15T03:56:09.986Z,74.90
2023-11-15T03:58:37.012Z,74.69
2023-11-15T04:01:04.355Z,74.99
2023-11-15T04:03:31.766Z,74.37
2023-11-15T04:05:58.716Z,74.49
2023-11-15T04:08:25.552Z,74.79
2023-11-15T04:10:52.287Z,75.05
2023-11-15T04:13:21.021Z,74.67
2023-11-15T04:15:49.010Z,73.86
2023-11-15T04:18:16.268Z,74.61
2023-11-15T04:20:43.460Z,75.28
2023-11-15T04:23:10.342Z,75.52
2023-11-15T04:25:37.106Z,75.70
2023-11-15T04:28:05.951Z,75.91
2023-11-15T04:30:33.308Z,75.70
2023-11-15T04:33:00.882Z,76.06
2023-11-15T04:35:28.116Z,75.82
2023-11-15T04:37:54.879Z,76.13
2023-11-15T04:40:22.257Z,75.25
2023-11-15T04:42:49.126Z,75.50
2023-11-15T04:45:16.051Z,76.36
2023-11-15T04:47:43.776Z,76.44
2023-11-15T04:50:10.837Z,76.57
2023-11-15T04:52:37.775Z,76.97
2023-11-15T04:55:05.364Z,75.97
2023-11-15T04:57:34.905Z,75.87
2023-11-15T05:00:01.752Z,76.13
2023-11-15T05:02:28.911Z,76.26
2023-11-15T05:04:56.565Z,76.86
2023-11-15T05:07:26.472Z,76.70
2023-11-15T05:09:53.373Z,77.48
2023-11-15T05:12:20.257Z,76.56
2023-11-15T05:14:47.705Z,76.27
2023-11-15T05:17:15.292Z,76.67
2023-11-15T05:19:42.030Z,76.59
2023-11-15T05:22:08.801Z,76.49
2023-11-15T05:24:37.171Z,76.82
2023-11-15T05:27:04.038Z,76.85
2023-11-15T05:29:31.558Z,77.40
2023-11-15T05:31:58.910Z,76.83
2023-11-15T05:34:25.942Z,76.29
2023-11-15T05:36:52.682Z,76.59
2023-11-15T05:39:19.489Z,76.15
2023-11-15T05:41:46.375Z,75.86
2023-11-15T05:44:13.150Z,75.82
2023-11-15T05:46:39.935Z,75.79
2023-11-15T05:49:06.713Z,76.10
2023-11-15T05:51:35.096Z,76.08
2023-11-15T05:54:06.364Z,76.20
2023-11-15T05:56:33.800Z,75.33
2023-11-15T05:59:01.165Z,74.89
2023-11-15T06:01:28.104Z,75.05
2023-11-15T06:03:55.257Z,74.78
2023-11-15T06:06:22.610Z,74.96
2023-11-15T06:08:49.472Z,75.96
2023-11-15T06:11:16.474Z,76.43
2023-11-15T06:13:44.180Z,76.36
2023-11-15T06:16:12.396Z,75.84
2023-11-15T06:18:39.995Z,76.17
2023-11-15T06:21:07.302Z,76.01
2023-11-15T06:23:37.564Z,76.14
2023-11-15T06:26:04.816Z,76.14
2023-11-15T06:28:31.673Z,76.57
2023-11-15T06:30:58.958Z,76.11
2023-11-15T06:33:27.218Z,76.16
2023-11-15T06:35:54.531Z,76.02
2023-11-15T06:38:21.907Z,76.18
2023-11-15T06:40:48.901Z,76.40
2023-11-15T06:43:15.696Z,76.82
2023-11-15T06:45:42.474Z,76.93
2023-11-15T06:48:09.373Z,77.01
2023-11-15T06:50:36.283Z,77.39
2023-11-15T06:53:03.106Z,77.37
2023-11-15T06:55:30.072Z,76.92
2023-11-15T06:57:56.822Z,76.43
2023-11-15T07:00:26.962Z,76.51
2023-11-15T07:02:53.941Z,76.75
2023-11-15T07:05:20.913Z,76.48
2023-11-15T07:07:49.182Z,76.88
2023-11-15T07:10:16.844Z,76.60
2023-11-15T07:12:44.156Z,77.62
2023-11-15T07:15:16.618Z,77.71
2023-11-15T07:17:45.793Z,78.13
2023-11-15T07:20:12.806Z,77.25
2023-11-15T07:22:39.935Z,77.83
2023-11-15T07:25:08.440Z,77.71
2023-11-15T07:27:35.811Z,77.76
2023-11-15T07:30:03.014Z,78.28
2023-11-15T07:32:29.921Z,78.23
2023-11-15T07:34:57.089Z,78.65
2023-11-15T07:37:24.147Z,79.17
2023-11-15T07:39:51.599Z,78.58
2023-11-15T07:42:18.637Z,79.32
2023-11-15T07:44:46.968Z,78.26
2023-11-15T07:47:15.280Z,78.01
2023-11-15T07:49:42.087Z,77.92
2023-11-15T07:52:08.750Z,77.88
2023-11-15T07:54:35.587Z,77.53
2023-11-15T07:57:02.446Z,77.70
2023-11-15T07:59:29.310Z,78.65
2023-11-15T08:01:56.101Z,78.24
2023-11-15T08:04:23.378Z,78.11
2023-11-15T08:06:50.531Z,78.07
2023-11-15T08:09:27.329Z,76.63
2023-11-15T08:11:57.886Z,76.70
2023-11-15T08:14:27.172Z,76.93
2023-11-15T08:16:54.682Z,77.10
2023-11-15T08:19:21.820Z,77.11
2023-11-15T08:21:49.349Z,76.51
2023-11-15T08:24:22.716Z,76.35
2023-11-15T08:26:55.058Z,76.83
2023-11-15T08:29:23.014Z,75.85
2023-11-15T08:31:50.656Z,77.27
2023-11-15T08:34:21.153Z,77.94
2023-11-15T08:36:50.328Z,77.07
2023-11-15T08:39:18.184Z,77.78
2023-11-15T08:41:48.103Z,78.16
2023-11-15T08:44:16.107Z,78.80
2023-11-15T08:46:46.966Z,78.40
2023-11-15T08:49:17.846Z,78.63
2023-11-15T08:51:46.521Z,78.69
2023-11-15T08:54:13.725Z,78.84
2023-11-15T08:56:44.164Z,77.45
2023-11-15T08:59:16.135Z,78.42
2023-11-15T09:02:05.232Z,77.56
2023-11-15T09:04:35.126Z,77.12
2023-11-15T09:07:02.271Z,76.89
2023-11-15T09:09:29.358Z,76.47
2023-11-15T09:11:58.594Z,77.16
2023-11-15T09:14:25.445Z,76.81
2023-11-15T09:16:52.841Z,76.04
2023-11-15T09:19:22.500Z,76.37
2023-11-15T09:21:54.684Z,74.96
2023-11-15T09:24:26.243Z,74.50
2023-11-15T09:26:53.473Z,75.11
2023-11-15T09:29:21.190Z,74.41
2023-11-15T09:31:48.149Z,73.75
2023-11-15T09:34:15.914Z,74.29
2023-11-15T09:36:49.268Z,75.11
2023-11-15T09:39:18.095Z,75.78
2023-11-15T09:41:55.568Z,74.06
2023-11-15T09:44:24.985Z,73.57
2023-11-15T09:46:59.496Z,74.60
2023-11-15T09:49:27.992Z,74.03
2023-11-15T09:51:58.331Z,74.06
2023-11-15T09:54:25.316Z,72.88
2023-11-15T09:56:53.000Z,71.93
2023-11-15T09:59:20.531Z,71.84
2023-11-15T10:01:50.564Z,70.82
2023-11-15T10:04:24.133Z,71.60
2023-11-15T10:06:59.791Z,71.56
2023-11-15T10:09:38.320Z,71.26
2023-11-15T10:12:07.464Z,70.77
2023-11-15T10:14:36.856Z,70.01
2023-11-15T10:17:08.397Z,70.29
2023-11-15T10:19:35.648Z,69.44
2023-11-15T10:22:06.834Z,70.25
2023-11-15T10:24:36.209Z,70.52
2023-11-15T10:27:12.730Z,70.87
2023-11-15T10:29:40.466Z,70.57
2023-11-15T10:32:07.760Z,70.08
2023-11-15T10:34:36.502Z,70.43
2023-11-15T10:37:11.951Z,69.69
2023-11-15T10:39:45.700Z,69.55
2023-11-15T10:42:14.113Z,71.08
2023-11-15T10:44:42.321Z,71.38
2023-11-15T10:47:09.680Z,72.23
2023-11-15T10:49:44.890Z,72.19
2023-11-15T10:52:12.989Z,72.85
2023-11-15T10:54:44.235Z,74.91
2023-11-15T10:57:11.341Z,75.20
2023-11-15T10:59:40.307Z,75.22
2023-11-15T11:02:07.885Z,73.79
2023-11-15T11:04:35.606Z,73.63
2023-11-15T11:07:09.239Z,74.38
2023-11-15T11:09:59.230Z,74.18
2023-11-15T11:12:26.716Z,73.90
2023-11-15T11:15:31.841Z,73.54
2023-11-15T11:18:06.230Z,74.88
2023-11-15T11:20:37.369Z,74.00
2023-11-15T11:23:24.154Z,74.93
2023-11-15T11:25:53.171Z,75.45
2023-11-15T11:28:22.379Z,75.76
2023-11-15T11:31:20.139Z,74.98
2023-11-15T11:34:09.366Z,75.76
2023-11-15T11:36:55.033Z,74.94
2023-11-15T11:39:42.792Z,74.96
2023-11-15T11:42:25.515Z,75.80
2023-11-15T11:44:56.482Z,75.29
2023-11-15T11:47:23.552Z,76.23
2023-11-15T11:49:51.174Z,74.67
2023-11-15T11:52:18.772Z,74.78
2023-11-15T11:54:51.375Z,76.24
2023-11-15T11:57:27.180Z,76.17
2023-11-15T12:00:05.954Z,77.32
2023-11-15T12:02:36.762Z,77.73
2023-11-15T12:05:13.226Z,76.97
2023-11-15T12:07:44.012Z,76.84
2023-11-15T12:10:15.091Z,76.55
2023-11-15T12:12:54.481Z,75.84
2023-11-15T12:15:24.495Z,76.98
2023-11-15T12:17:53.246Z,76.71
2023-11-15T12:20:41.055Z,78.57
2023-11-15T12:23:13.686Z,78.77
2023-11-15T12:25:49.420Z,78.14
2023-11-15T12:28:21.048Z,78.70
2023-11-15T12:30:48.131Z,77.57
2023-11-15T12:33:15.489Z,76.08
2023-11-15T12:35:44.235Z,74.76
2023-11-15T12:38:13.673Z,74.61
2023-11-15T12:40:42.481Z,75.40
2023-11-15T12:43:26.461Z,75.82
2023-11-15T12:45:56.743Z,74.42
2023-11-15T12:48:23.647Z,74.18
2023-11-15T12:50:51.203Z,71.54
2023-11-15T12:53:19.105Z,70.21
2023-11-15T12:55:55.935Z,69.89
2023-11-15T12:58:28.469Z,67.74
2023-11-15T13:01:09.388Z,68.37
2023-11-15T13:03:38.083Z,67.62
2023-11-15T13:06:19.576Z,67.90
2023-11-15T13:08:51.712Z,66.62
2023-11-15T13:11:26.404Z,65.00
2023-11-15T13:13:53.818Z,65.60
2023-11-15T13:16:22.254Z,65.19
2023-11-15T13:18:50.619Z,64.80
2023-11-15T13:21:20.273Z,65.03
2023-11-15T13:23:48.903Z,66.43
2023-11-15T13:26:16.460Z,65.86
2023-11-15T13:28:45.870Z,65.58
2023-11-15T13:31:16.355Z,66.71
2023-11-15T13:33:49.389Z,65.74
2023-11-15T13:36:19.754Z,66.24
2023-11-15T13:38:47.219Z,66.94
2023-11-15T13:41:16.965Z,66.41
2023-11-15T13:43:45.925Z,67.03
2023-11-15T13:46:13.227Z,67.47
2023-11-15T13:48:41.215Z,68.25
2023-11-15T13:51:08.359Z,70.45
2023-11-15T13:53:40.432Z,69.56
2023-11-15T13:56:08.687Z,69.98
2023-11-15T13:58:37.458Z,68.78
2023-11-15T14:01:06.318Z,69.18
2023-11-15T14:03:34.161Z,69.68
2023-11-15T14:06:04.441Z,69.69
2023-11-15T14:08:47.303Z,70.31
2023-11-15T14:11:23.552Z,70.18
2023-11-15T14:13:50.604Z,70.01
2023-11-15T14:16:17.617Z,69.79
2023-11-15T14:18:48.776Z,69.44
2023-11-15T14:21:15.876Z,68.90
2023-11-15T14:23:42.778Z,69.64
2023-11-15T14:26:10.136Z,70.69
2023-11-15T14:28:37.070Z,70.94
2023-11-15T14:31:06.408Z,70.70
2023-11-15T14:33:33.911Z,70.29
2023-11-15T14:36:00.885Z,70.29
2023-11-15T14:38:29.683Z,70.68
2023-11-15T14:40:57.203Z,70.32
2023-11-15T14:43:24.099Z,71.38
2023-11-15T14:45:51.967Z,71.71
2023-11-15T14:48:20.234Z,71.60
2023-11-15T14:50:47.762Z,71.43
2023-11-15T14:53:24.283Z,71.48
2023-11-15T14:55:52.773Z,70.78
2023-11-15T14:58:27.443Z,70.69
2023-11-15T15:00:54.578Z,71.03
2023-11-15T15:03:24.312Z,70.89
2023-11-15T15:05:53.162Z,71.39
2023-11-15T15:08:23.044Z,71.91
2023-11-15T15:10:54.917Z,72.43
2023-11-15T15:13:22.410Z,71.97
2023-11-15T15:15:49.646Z,72.88
2023-11-15T15:18:19.697Z,72.50
2023-11-15T15:20:52.615Z,71.92
2023-11-15T15:23:19.794Z,71.53
2023-11-15T15:25:47.468Z,72.47
2023-11-15T15:28:16.067Z,72.65
2023-11-15T15:30:44.657Z,72.16
2023-11-15T15:33:12.232Z,72.10
2023-11-15T15:35:39.718Z,72.15
2023-11-15T15:38:09.001Z,72.13
2023-11-15T15:40:39.701Z,72.31
2023-11-15T15:43:07.168Z,72.25
2023-11-15T15:45:37.191Z,72.56
2023-11-15T15:48:05.969Z,72.65
2023-11-15T15:50:33.432Z,72.78
2023-11-15T15:53:00.275Z,73.85
2023-11-15T15:55:27.235Z,73.55
2023-11-15T15:57:54.318Z,73.69
2023-11-15T16:00:21.548Z,74.10
2023-11-15T16:02:49.618Z,74.78
2023-11-15T16:05:19.387Z,74.66
2023-11-15T16:07:46.251Z,74.00
2023-11-15T16:10:16.471Z,73.94
2023-11-15T16:12:44.017Z,74.21
2023-11-15T16:15:18.218Z,74.50
2023-11-15T16:17:45.933Z,74.67
2023-11-15T16:20:13.739Z,73.81
2023-11-15T16:22:40.933Z,73.90
2023-11-15T16:25:08.692Z,74.17
2023-11-15T16:27:38.294Z,74.66
2023-11-15T16:30:06.790Z,75.74
2023-11-15T16:32:36.703Z,75.96
2023-11-15T16:35:05.582Z,76.07
2023-11-15T16:37:35.513Z,76.34
2023-11-15T16:40:06.896Z,76.77
2023-11-15T16:42:34.559Z,76.33
2023-11-15T16:45:08.309Z,75.59
2023-11-15T16:47:37.291Z,75.30
2023-11-15T16:50:05.176Z,75.49
2023-11-15T16:52:34.372Z,75.41
2023-11-15T16:55:05.316Z,74.88
2023-11-15T16:57:32.504Z,75.22
2023-11-15T17:00:01.083Z,75.42
2023-11-15T17:02:33.284Z,75.80
2023-11-15T17:05:00.831Z,76.33
2023-11-15T17:07:28.255Z,76.54
2023-11-15T17:09:55.939Z,76.31
2023-11-15T17:12:27.195Z,76.61
2023-11-15T17:14:57.798Z,77.02
2023-11-15T17:17:28.779Z,76.89
2023-11-15T17:19:58.706Z,76.12
2023-11-15T17:22:32.237Z,75.91
2023-11-15T17:24:59.376Z,76.01
2023-11-15T17:27:26.363Z,76.54
2023-11-15T17:29:53.511Z,76.23
2023-11-15T17:32:20.374Z,75.96
2023-11-15T17:34:49.256Z,75.95
2023-11-15T17:37:19.589Z,75.46
2023-11-15T17:39:46.536Z,75.92
2023-11-15T17:42:13.531Z,76.67
2023-11-15T17:44:40.609Z,76.53
2023-11-15T17:47:20.266Z,75.62
2023-11-15T17:49:48.321Z,75.60
2023-11-15T17:52:15.917Z,75.24
2023-11-15T17:54:52.354Z,75.11
2023-11-15T17:57:24.426Z,75.11
2023-11-15T18:00:00.429Z,75.21
2023-11-15T18:02:27.450Z,75.69
2023-11-15T18:05:00.273Z,75.52
2023-11-15T18:07:28.228Z,75.65
2023-11-15T18:09:55.158Z,76.79
2023-11-15T18:12:21.941Z,77.22
2023-11-15T18:14:48.937Z,77.59
2023-11-15T18:17:17.345Z,77.64
2023-11-15T18:19:44.172Z,77.68
2023-11-15T18:22:10.998Z,77.40
2023-11-15T18:24:38.367Z,77.58
2023-11-15T18:27:05.245Z,77.76
2023-11-15T18:29:33.567Z,76.73
2023-11-15T18:32:00.428Z,76.82
2023-11-15T18:34:27.491Z,76.51
2023-11-15T18:36:54.738Z,76.52
2023-11-15T18:39:22.051Z,76.68
2023-11-15T18:41:49.646Z,76.29
2023-11-15T18:44:17.352Z,75.64
2023-11-15T18:46:48.374Z,75.15
2023-11-15T18:49:16.254Z,75.17
2023-11-15T18:51:43.754Z,75.51
2023-11-15T18:54:12.125Z,75.54
2023-11-15T18:56:38.930Z,75.45
2023-11-15T18:59:06.154Z,74.99
2023-11-15T19:01:33.062Z,74.44
2023-11-15T19:04:01.369Z,73.80
2023-11-15T19:06:29.211Z,72.93
2023-11-15T19:08:56.591Z,72.88
2023-11-15T19:11:23.431Z,73.04
2023-11-15T19:13:51.283Z,73.39
2023-11-15T19:16:20.072Z,73.19
2023-11-15T19:18:47.867Z,73.60
2023-11-15T19:21:17.739Z,73.73
2023-11-15T19:23:44.699Z,73.82
2023-11-15T19:26:11.963Z,74.39
2023-11-15T19:28:39.434Z,73.26
2023-11-15T19:31:06.546Z,74.02
2023-11-15T19:33:33.846Z,74.26
2023-11-15T19:36:00.913Z,74.39
2023-11-15T19:38:28.009Z,74.68
2023-11-15T19:40:54.907Z,75.24
2023-11-15T19:43:23.330Z,74.16
2023-11-15T19:45:56.243Z,74.37
2023-11-15T19:48:23.967Z,74.59
2023-11-15T19:50:51.237Z,73.54
2023-11-15T19:53:20.278Z,73.27
2023-11-15T19:55:50.673Z,74.13
2023-11-15T19:58:17.657Z,73.57
2023-11-15T20:00:44.647Z,74.33
2023-11-15T20:03:11.866Z,73.99
2023-11-15T20:05:42.300Z,74.08
2023-11-15T20:08:10.390Z,74.25
2023-11-15T20:10:37.501Z,73.73
2023-11-15T20:13:05.424Z,73.67
2023-11-15T20:15:32.385Z,74.41
2023-11-15T20:17:59.759Z,73.86
2023-11-15T20:20:26.717Z,73.48
2023-11-15T20:22:55.767Z,71.94
2023-11-15T20:25:24.758Z,72.73
2023-11-15T20:27:51.562Z,73.27
2023-11-15T20:30:19.797Z,73.06
2023-11-15T20:32:48.516Z,72.31
2023-11-15T20:35:16.806Z,72.09
2023-11-15T20:37:43.789Z,72.48
2023-11-15T20:40:16.642Z,73.08
2023-11-15T20:42:47.630Z,72.85
2023-11-15T20:45:15.008Z,73.19
2023-11-15T20:47:41.894Z,73.03
2023-11-15T20:50:09.921Z,72.47
2023-11-15T20:52:36.935Z,72.61
2023-11-15T20:55:03.897Z,72.73
2023-11-15T20:57:30.764Z,72.66
2023-11-15T20:59:59.892Z,72.44
2023-11-15T21:02:27.495Z,72.67
2023-11-15T21:04:58.569Z,72.71
2023-11-15T21:07:26.978Z,72.22
2023-11-15T21:09:54.448Z,72.49
2023-11-15T21:12:22.860Z,72.94
2023-11-15T21:14:50.410Z,73.40
2023-11-15T21:17:17.438Z,72.85
2023-11-15T21:19:44.804Z,72.90
2023-11-15T21:22:11.794Z,72.51
2023-11-15T21:24:39.280Z,73.06
2023-11-15T21:27:08.191Z,73.01
2023-11-15T21:29:36.509Z,72.90
2023-11-15T21:32:08.490Z,73.30
2023-11-15T21:34:35.960Z,73.71
2023-11-15T21:37:09.631Z,74.41
2023-11-15T21:39:40.591Z,74.69
2023-11-15T21:42:07.949Z,74.69
2023-11-15T21:44:34.745Z,74.73
2023-11-15T21:47:02.153Z,74.85
2023-11-15T21:49:29.016Z,74.93
2023-11-15T21:51:55.858Z,74.26
2023-11-15T21:54:25.703Z,74.25
2023-11-15T21:56:52.798Z,74.02
2023-11-15T21:59:20.195Z,74.10
2023-11-15T22:01:47.422Z,74.52
2023-11-15T22:04:15.484Z,74.32
2023-11-15T22:06:52.288Z,74.39
2023-11-15T22:09:28.006Z,74.55
2023-11-15T22:11:55.021Z,74.21
2023-11-15T22:14:22.431Z,74.44
2023-11-15T22:16:53.093Z,73.93
2023-11-15T22:19:20.029Z,73.15
2023-11-15T22:21:47.396Z,73.73
2023-11-15T22:24:14.721Z,73.98
2023-11-15T22:26:41.638Z,73.80
2023-11-15T22:29:08.544Z,73.66
2023-11-15T22:31:36.419Z,73.99
2023-11-15T22:34:03.477Z,73.84
2023-11-15T22:36:31.316Z,73.75
2023-11-15T22:38:58.437Z,73.92
2023-11-15T22:41:25.377Z,74.24
2023-11-15T22:43:52.329Z,74.02
2023-11-15T22:46:19.347Z,73.76
2023-11-15T22:48:47.298Z,73.63
2023-11-15T22:51:14.437Z,73.94
2023-11-15T22:53:41.835Z,74.00
2023-11-15T22:56:10.375Z,74.13
2023-11-15T22:58:37.244Z,73.99
2023-11-15T23:01:04.764Z,74.03
2023-11-15T23:03:31.919Z,74.11
2023-11-15T23:05:59.664Z,74.25
2023-11-15T23:08:26.989Z,74.12
2023-11-15T23:10:54.068Z,74.51
2023-11-15T23:13:20.950Z,75.08
2023-11-15T23:15:51.708Z,75.02
2023-11-15T23:18:19.746Z,74.64
2023-11-15T23:20:48.795Z,75.08
2023-11-15T23:23:18.963Z,74.90
2023-11-15T23:25:51.539Z,75.06
2023-11-15T23:28:24.871Z,75.30
2023-11-15T23:30:56.971Z,75.32
2023-11-15T23:33:23.844Z,74.94
2023-11-15T23:35:51.248Z,74.90
2023-11-15T23:38:18.162Z,74.85
2023-11-15T23:40:45.256Z,75.09
2023-11-15T23:43:12.894Z,75.26
2023-11-15T23:45:40.127Z,75.34
2023-11-15T23:48:08.793Z,75.29
2023-11-15T23:50:35.874Z,75.23
2023-11-15T23:53:02.859Z,75.63
2023-11-15T23:55:30.470Z,74.61
2023-11-15T23:58:04.522Z,74.61
